Plainfield, Indiana
Current Conditions -  °F | °C
As of 12:54 AM on Saturday 25 Oct 2014 (Local Time) from KIND Reporting Station
Few Clouds Few Clouds  
Wind Chill: 50°   Ceiling: Unl
Heat Index: 50°   Visibility: 8mi
Dew Point: 48°   Wind: 5mph
Humidity: 93%   Direction: 240°WSW
Pressure: 30.01"   Gusts: NA
Location:  39.7°N, 86.4°W
Report Text: KIND 250454Z 24004KT 8SM FEW100 10/09 A3001 RMK AO2 SLP163 T01000089 401890044
Loading
Personal Weather Stations






























Interactive Weather Map
Tropical Storm Tracking
New forecast layout! Learn more

10-Day Weather Forecast

Advertisements
Track Severe Weather on mobile